sensor_id;sensor_type;location;lat;lon;timestamp;P1;durP1;ratioP1;P2;durP2;ratioP2
54641;SDS011;40536;53.194;5.728;2023-06-26T00:00:28;43.55;;;40.80;;
54641;SDS011;40536;53.194;5.728;2023-06-26T00:02:54;49.47;;;46.33;;
54641;SDS011;40536;53.194;5.728;2023-06-26T00:05:20;49.05;;;45.75;;
54641;SDS011;40536;53.194;5.728;2023-06-26T00:07:45;49.53;;;46.47;;
54641;SDS011;40536;53.194;5.728;2023-06-26T00:10:11;52.10;;;48.90;;
54641;SDS011;40536;53.194;5.728;2023-06-26T00:12:37;48.78;;;45.63;;
54641;SDS011;40536;53.194;5.728;2023-06-26T00:15:02;53.20;;;49.60;;
54641;SDS011;40536;53.194;5.728;2023-06-26T00:17:28;53.80;;;50.45;;
54641;SDS011;40536;53.194;5.728;2023-06-26T00:19:54;55.58;;;51.85;;
54641;SDS011;40536;53.194;5.728;2023-06-26T00:22:20;55.72;;;52.42;;
54641;SDS011;40536;53.194;5.728;2023-06-26T00:24:46;56.08;;;52.63;;
54641;SDS011;40536;53.194;5.728;2023-06-26T00:27:12;57.70;;;54.08;;
54641;SDS011;40536;53.194;5.728;2023-06-26T00:29:38;55.53;;;52.17;;
54641;SDS011;40536;53.194;5.728;2023-06-26T00:32:04;56.72;;;53.15;;
54641;SDS011;40536;53.194;5.728;2023-06-26T00:34:30;60.85;;;56.97;;
54641;SDS011;40536;53.194;5.728;2023-06-26T00:36:55;56.50;;;52.88;;
54641;SDS011;40536;53.194;5.728;2023-06-26T00:39:21;68.35;;;64.10;;
54641;SDS011;40536;53.194;5.728;2023-06-26T00:41:47;60.05;;;56.40;;
54641;SDS011;40536;53.194;5.728;2023-06-26T00:44:13;62.55;;;58.72;;
54641;SDS011;40536;53.194;5.728;2023-06-26T00:46:39;64.75;;;60.67;;
54641;SDS011;40536;53.194;5.728;2023-06-26T00:49:07;63.70;;;59.67;;
54641;SDS011;40536;53.194;5.728;2023-06-26T00:51:33;62.60;;;58.90;;
54641;SDS011;40536;53.194;5.728;2023-06-26T00:53:59;64.53;;;60.55;;
54641;SDS011;40536;53.194;5.728;2023-06-26T00:56:25;62.47;;;58.70;;
54641;SDS011;40536;53.194;5.728;2023-06-26T00:58:52;64.93;;;61.15;;
54641;SDS011;40536;53.194;5.728;2023-06-26T01:01:18;59.90;;;56.15;;
54641;SDS011;40536;53.194;5.728;2023-06-26T01:03:49;60.75;;;57.10;;
54641;SDS011;40536;53.194;5.728;2023-06-26T01:06:21;63.22;;;59.53;;
54641;SDS011;40536;53.194;5.728;2023-06-26T01:08:48;66.22;;;62.15;;
54641;SDS011;40536;53.194;5.728;2023-06-26T01:11:15;63.08;;;59.13;;
54641;SDS011;40536;53.194;5.728;2023-06-26T01:13:41;64.03;;;60.25;;
54641;SDS011;40536;53.194;5.728;2023-06-26T01:16:09;61.42;;;57.67;;
54641;SDS011;40536;53.194;5.728;2023-06-26T01:18:35;62.25;;;58.47;;
54641;SDS011;40536;53.194;5.728;2023-06-26T01:21:07;60.97;;;57.40;;
54641;SDS011;40536;53.194;5.728;2023-06-26T01:23:39;60.25;;;56.55;;
54641;SDS011;40536;53.194;5.728;2023-06-26T01:26:20;60.17;;;56.42;;
54641;SDS011;40536;53.194;5.728;2023-06-26T01:28:48;64.28;;;60.58;;
54641;SDS011;40536;53.194;5.728;2023-06-26T01:31:16;66.45;;;62.40;;
54641;SDS011;40536;53.194;5.728;2023-06-26T01:33:43;68.82;;;64.82;;
54641;SDS011;40536;53.194;5.728;2023-06-26T01:36:09;65.85;;;62.03;;
54641;SDS011;40536;53.194;5.728;2023-06-26T01:38:36;69.13;;;65.15;;
54641;SDS011;40536;53.194;5.728;2023-06-26T01:41:02;68.65;;;64.53;;
54641;SDS011;40536;53.194;5.728;2023-06-26T01:51:58;55.88;;;52.30;;
54641;SDS011;40536;53.194;5.728;2023-06-26T01:54:37;50.53;;;47.33;;
54641;SDS011;40536;53.194;5.728;2023-06-26T01:57:08;48.42;;;45.30;;
54641;SDS011;40536;53.194;5.728;2023-06-26T01:59:34;52.88;;;49.63;;
54641;SDS011;40536;53.194;5.728;2023-06-26T02:02:02;47.50;;;44.42;;
54641;SDS011;40536;53.194;5.728;2023-06-26T02:04:27;49.30;;;45.88;;
54641;SDS011;40536;53.194;5.728;2023-06-26T02:06:53;57.35;;;53.78;;
54641;SDS011;40536;53.194;5.728;2023-06-26T02:09:20;56.05;;;52.30;;
54641;SDS011;40536;53.194;5.728;2023-06-26T02:11:45;58.97;;;55.38;;
54641;SDS011;40536;53.194;5.728;2023-06-26T02:14:11;54.75;;;51.35;;
54641;SDS011;40536;53.194;5.728;2023-06-26T02:16:37;58.08;;;54.30;;
54641;SDS011;40536;53.194;5.728;2023-06-26T02:19:03;64.72;;;60.72;;
54641;SDS011;40536;53.194;5.728;2023-06-26T02:21:28;65.78;;;61.92;;
54641;SDS011;40536;53.194;5.728;2023-06-26T02:23:54;78.75;;;74.05;;
54641;SDS011;40536;53.194;5.728;2023-06-26T02:26:19;71.05;;;66.90;;
54641;SDS011;40536;53.194;5.728;2023-06-26T02:28:45;69.18;;;65.13;;
54641;SDS011;40536;53.194;5.728;2023-06-26T02:31:11;62.13;;;58.20;;
54641;SDS011;40536;53.194;5.728;2023-06-26T02:33:37;67.85;;;63.75;;
54641;SDS011;40536;53.194;5.728;2023-06-26T02:36:02;63.78;;;59.90;;
54641;SDS011;40536;53.194;5.728;2023-06-26T02:38:28;60.90;;;57.28;;
54641;SDS011;40536;53.194;5.728;2023-06-26T02:40:54;58.17;;;54.42;;
54641;SDS011;40536;53.194;5.728;2023-06-26T02:43:19;58.35;;;54.72;;
54641;SDS011;40536;53.194;5.728;2023-06-26T02:45:45;56.53;;;52.85;;
54641;SDS011;40536;53.194;5.728;2023-06-26T02:48:11;56.00;;;52.35;;
54641;SDS011;40536;53.194;5.728;2023-06-26T02:50:36;60.03;;;55.88;;
54641;SDS011;40536;53.194;5.728;2023-06-26T02:53:02;63.03;;;58.92;;
54641;SDS011;40536;53.194;5.728;2023-06-26T02:55:27;58.17;;;54.40;;
54641;SDS011;40536;53.194;5.728;2023-06-26T02:57:53;68.28;;;63.80;;
54641;SDS011;40536;53.194;5.728;2023-06-26T03:00:19;65.25;;;61.13;;
54641;SDS011;40536;53.194;5.728;2023-06-26T03:02:44;67.15;;;63.13;;
54641;SDS011;40536;53.194;5.728;2023-06-26T03:05:10;62.33;;;58.50;;
54641;SDS011;40536;53.194;5.728;2023-06-26T03:07:38;65.20;;;60.83;;
54641;SDS011;40536;53.194;5.728;2023-06-26T03:10:04;63.22;;;58.97;;
54641;SDS011;40536;53.194;5.728;2023-06-26T03:12:30;63.05;;;58.70;;
54641;SDS011;40536;53.194;5.728;2023-06-26T03:14:56;77.70;;;73.03;;
54641;SDS011;40536;53.194;5.728;2023-06-26T03:17:21;61.58;;;57.42;;
54641;SDS011;40536;53.194;5.728;2023-06-26T03:19:47;57.58;;;53.85;;
54641;SDS011;40536;53.194;5.728;2023-06-26T03:22:13;59.15;;;55.20;;
54641;SDS011;40536;53.194;5.728;2023-06-26T03:24:39;59.80;;;55.88;;
54641;SDS011;40536;53.194;5.728;2023-06-26T03:27:04;67.25;;;62.47;;
54641;SDS011;40536;53.194;5.728;2023-06-26T03:29:30;75.22;;;70.15;;
54641;SDS011;40536;53.194;5.728;2023-06-26T03:31:56;60.53;;;56.40;;
54641;SDS011;40536;53.194;5.728;2023-06-26T03:34:21;75.18;;;70.40;;
54641;SDS011;40536;53.194;5.728;2023-06-26T03:36:47;64.38;;;59.78;;
54641;SDS011;40536;53.194;5.728;2023-06-26T03:39:13;80.22;;;74.90;;
54641;SDS011;40536;53.194;5.728;2023-06-26T03:41:38;56.78;;;52.67;;
54641;SDS011;40536;53.194;5.728;2023-06-26T03:44:04;62.53;;;58.13;;
54641;SDS011;40536;53.194;5.728;2023-06-26T03:46:30;59.17;;;54.85;;
54641;SDS011;40536;53.194;5.728;2023-06-26T03:48:55;54.65;;;50.88;;
54641;SDS011;40536;53.194;5.728;2023-06-26T03:51:21;55.05;;;50.85;;
54641;SDS011;40536;53.194;5.728;2023-06-26T03:53:47;51.22;;;47.65;;
54641;SDS011;40536;53.194;5.728;2023-06-26T03:56:12;55.70;;;51.88;;
54641;SDS011;40536;53.194;5.728;2023-06-26T03:58:39;53.90;;;49.85;;
54641;SDS011;40536;53.194;5.728;2023-06-26T04:01:05;53.13;;;49.15;;
54641;SDS011;40536;53.194;5.728;2023-06-26T04:03:31;54.03;;;50.00;;
54641;SDS011;40536;53.194;5.728;2023-06-26T04:05:56;50.75;;;46.55;;
54641;SDS011;40536;53.194;5.728;2023-06-26T04:08:23;52.08;;;48.60;;
54641;SDS011;40536;53.194;5.728;2023-06-26T04:10:51;51.35;;;47.40;;
54641;SDS011;40536;53.194;5.728;2023-06-26T04:13:17;46.45;;;43.05;;
54641;SDS011;40536;53.194;5.728;2023-06-26T04:15:43;52.25;;;48.45;;
54641;SDS011;40536;53.194;5.728;2023-06-26T04:18:08;49.17;;;45.28;;
54641;SDS011;40536;53.194;5.728;2023-06-26T04:20:38;52.20;;;48.80;;
54641;SDS011;40536;53.194;5.728;2023-06-26T04:23:05;61.72;;;57.75;;
54641;SDS011;40536;53.194;5.728;2023-06-26T04:25:31;75.57;;;70.90;;
54641;SDS011;40536;53.194;5.728;2023-06-26T04:27:56;61.45;;;57.25;;
54641;SDS011;40536;53.194;5.728;2023-06-26T04:30:22;73.97;;;69.60;;
54641;SDS011;40536;53.194;5.728;2023-06-26T04:32:48;44.70;;;41.50;;
54641;SDS011;40536;53.194;5.728;2023-06-26T04:35:13;49.15;;;45.95;;
54641;SDS011;40536;53.194;5.728;2023-06-26T04:37:39;43.13;;;40.05;;
54641;SDS011;40536;53.194;5.728;2023-06-26T04:40:05;75.80;;;70.47;;
54641;SDS011;40536;53.194;5.728;2023-06-26T04:42:32;46.97;;;43.47;;
54641;SDS011;40536;53.194;5.728;2023-06-26T04:44:57;66.32;;;61.85;;
54641;SDS011;40536;53.194;5.728;2023-06-26T04:47:23;58.17;;;54.25;;
54641;SDS011;40536;53.194;5.728;2023-06-26T04:49:49;52.33;;;48.55;;
54641;SDS011;40536;53.194;5.728;2023-06-26T04:52:15;57.03;;;52.53;;
54641;SDS011;40536;53.194;5.728;2023-06-26T04:54:40;50.35;;;46.58;;
54641;SDS011;40536;53.194;5.728;2023-06-26T04:57:07;52.50;;;48.42;;
54641;SDS011;40536;53.194;5.728;2023-06-26T04:59:34;38.28;;;35.17;;
54641;SDS011;40536;53.194;5.728;2023-06-26T05:01:59;40.42;;;36.90;;
54641;SDS011;40536;53.194;5.728;2023-06-26T05:04:25;41.85;;;38.95;;
54641;SDS011;40536;53.194;5.728;2023-06-26T05:06:50;38.05;;;34.95;;
54641;SDS011;40536;53.194;5.728;2023-06-26T05:09:16;40.40;;;36.53;;
54641;SDS011;40536;53.194;5.728;2023-06-26T05:11:42;42.00;;;38.83;;
54641;SDS011;40536;53.194;5.728;2023-06-26T05:14:07;47.75;;;44.42;;
54641;SDS011;40536;53.194;5.728;2023-06-26T05:16:34;51.47;;;47.67;;
54641;SDS011;40536;53.194;5.728;2023-06-26T05:19:00;50.22;;;46.85;;
54641;SDS011;40536;53.194;5.728;2023-06-26T05:21:25;81.05;;;75.63;;
54641;SDS011;40536;53.194;5.728;2023-06-26T05:23:51;56.10;;;52.28;;
54641;SDS011;40536;53.194;5.728;2023-06-26T05:26:20;54.47;;;50.95;;
54641;SDS011;40536;53.194;5.728;2023-06-26T05:28:46;54.80;;;51.03;;
54641;SDS011;40536;53.194;5.728;2023-06-26T05:31:14;37.10;;;34.13;;
54641;SDS011;40536;53.194;5.728;2023-06-26T05:33:40;31.60;;;29.20;;
54641;SDS011;40536;53.194;5.728;2023-06-26T05:36:09;21.58;;;18.73;;
54641;SDS011;40536;53.194;5.728;2023-06-26T05:38:35;19.98;;;18.10;;
54641;SDS011;40536;53.194;5.728;2023-06-26T05:41:01;14.73;;;13.30;;
54641;SDS011;40536;53.194;5.728;2023-06-26T05:43:27;16.95;;;14.23;;
54641;SDS011;40536;53.194;5.728;2023-06-26T05:45:52;15.35;;;12.90;;
54641;SDS011;40536;53.194;5.728;2023-06-26T05:48:18;18.08;;;16.20;;
54641;SDS011;40536;53.194;5.728;2023-06-26T05:50:44;16.23;;;11.13;;
54641;SDS011;40536;53.194;5.728;2023-06-26T05:53:10;12.25;;;9.95;;
54641;SDS011;40536;53.194;5.728;2023-06-26T05:55:36;13.98;;;8.82;;
54641;SDS011;40536;53.194;5.728;2023-06-26T05:58:03;15.68;;;9.00;;
54641;SDS011;40536;53.194;5.728;2023-06-26T06:00:29;11.55;;;7.32;;
54641;SDS011;40536;53.194;5.728;2023-06-26T06:02:55;14.60;;;7.90;;
54641;SDS011;40536;53.194;5.728;2023-06-26T06:05:21;11.85;;;7.70;;
54641;SDS011;40536;53.194;5.728;2023-06-26T06:07:47;14.65;;;10.20;;
54641;SDS011;40536;53.194;5.728;2023-06-26T06:10:13;10.10;;;8.20;;
54641;SDS011;40536;53.194;5.728;2023-06-26T06:12:39;14.30;;;6.78;;
54641;SDS011;40536;53.194;5.728;2023-06-26T06:15:05;17.65;;;8.52;;
54641;SDS011;40536;53.194;5.728;2023-06-26T06:17:31;14.82;;;7.43;;
54641;SDS011;40536;53.194;5.728;2023-06-26T06:19:57;20.63;;;7.75;;
54641;SDS011;40536;53.194;5.728;2023-06-26T06:22:22;15.88;;;8.10;;
54641;SDS011;40536;53.194;5.728;2023-06-26T06:24:48;11.25;;;8.70;;
54641;SDS011;40536;53.194;5.728;2023-06-26T06:27:15;13.93;;;7.50;;
54641;SDS011;40536;53.194;5.728;2023-06-26T06:29:41;9.95;;;7.35;;
54641;SDS011;40536;53.194;5.728;2023-06-26T06:32:07;10.05;;;6.85;;
54641;SDS011;40536;53.194;5.728;2023-06-26T06:34:33;11.48;;;6.05;;
54641;SDS011;40536;53.194;5.728;2023-06-26T06:36:59;14.38;;;6.68;;
54641;SDS011;40536;53.194;5.728;2023-06-26T06:39:25;7.75;;;5.80;;
54641;SDS011;40536;53.194;5.728;2023-06-26T06:41:51;8.52;;;5.75;;
54641;SDS011;40536;53.194;5.728;2023-06-26T06:44:16;15.90;;;6.78;;
54641;SDS011;40536;53.194;5.728;2023-06-26T06:46:42;8.68;;;6.15;;
54641;SDS011;40536;53.194;5.728;2023-06-26T06:49:08;7.15;;;5.78;;
54641;SDS011;40536;53.194;5.728;2023-06-26T06:51:34;9.35;;;6.40;;
54641;SDS011;40536;53.194;5.728;2023-06-26T06:54:00;8.82;;;7.00;;
54641;SDS011;40536;53.194;5.728;2023-06-26T06:56:26;9.02;;;7.97;;
54641;SDS011;40536;53.194;5.728;2023-06-26T06:58:53;8.25;;;7.30;;
54641;SDS011;40536;53.194;5.728;2023-06-26T07:01:18;8.63;;;6.82;;
54641;SDS011;40536;53.194;5.728;2023-06-26T07:03:44;8.88;;;7.63;;
54641;SDS011;40536;53.194;5.728;2023-06-26T07:06:09;10.32;;;7.90;;
54641;SDS011;40536;53.194;5.728;2023-06-26T07:08:35;9.18;;;8.07;;
54641;SDS011;40536;53.194;5.728;2023-06-26T07:11:01;9.63;;;7.90;;
54641;SDS011;40536;53.194;5.728;2023-06-26T07:13:26;10.07;;;8.00;;
54641;SDS011;40536;53.194;5.728;2023-06-26T07:15:52;8.93;;;8.02;;
54641;SDS011;40536;53.194;5.728;2023-06-26T07:18:17;11.27;;;7.90;;
54641;SDS011;40536;53.194;5.728;2023-06-26T07:20:43;11.30;;;8.15;;
54641;SDS011;40536;53.194;5.728;2023-06-26T07:23:09;11.40;;;7.32;;
54641;SDS011;40536;53.194;5.728;2023-06-26T07:25:35;10.35;;;8.68;;
54641;SDS011;40536;53.194;5.728;2023-06-26T07:28:01;9.68;;;6.90;;
54641;SDS011;40536;53.194;5.728;2023-06-26T07:30:27;10.73;;;7.22;;
54641;SDS011;40536;53.194;5.728;2023-06-26T07:32:52;13.55;;;9.95;;
54641;SDS011;40536;53.194;5.728;2023-06-26T07:35:18;9.85;;;6.60;;
54641;SDS011;40536;53.194;5.728;2023-06-26T07:37:46;10.13;;;8.30;;
54641;SDS011;40536;53.194;5.728;2023-06-26T07:40:13;11.50;;;9.48;;
54641;SDS011;40536;53.194;5.728;2023-06-26T07:42:38;11.32;;;7.72;;
54641;SDS011;40536;53.194;5.728;2023-06-26T07:45:05;10.32;;;8.07;;
54641;SDS011;40536;53.194;5.728;2023-06-26T07:47:36;11.43;;;8.02;;
54641;SDS011;40536;53.194;5.728;2023-06-26T07:50:02;10.60;;;8.73;;
54641;SDS011;40536;53.194;5.728;2023-06-26T07:52:28;10.70;;;7.20;;
54641;SDS011;40536;53.194;5.728;2023-06-26T07:54:55;13.90;;;7.05;;
54641;SDS011;40536;53.194;5.728;2023-06-26T07:57:22;11.93;;;6.72;;
54641;SDS011;40536;53.194;5.728;2023-06-26T07:59:47;8.80;;;6.65;;
54641;SDS011;40536;53.194;5.728;2023-06-26T08:02:13;8.43;;;6.90;;
54641;SDS011;40536;53.194;5.728;2023-06-26T08:04:39;10.65;;;7.13;;
54641;SDS011;40536;53.194;5.728;2023-06-26T08:07:04;11.82;;;8.70;;
54641;SDS011;40536;53.194;5.728;2023-06-26T08:09:30;10.55;;;7.32;;
54641;SDS011;40536;53.194;5.728;2023-06-26T08:11:56;11.05;;;8.30;;
54641;SDS011;40536;53.194;5.728;2023-06-26T08:14:23;10.82;;;6.97;;
54641;SDS011;40536;53.194;5.728;2023-06-26T08:16:49;11.43;;;8.60;;
54641;SDS011;40536;53.194;5.728;2023-06-26T08:19:15;8.80;;;7.32;;
54641;SDS011;40536;53.194;5.728;2023-06-26T08:21:42;13.07;;;8.50;;
54641;SDS011;40536;53.194;5.728;2023-06-26T08:24:08;12.68;;;8.43;;
54641;SDS011;40536;53.194;5.728;2023-06-26T08:26:34;11.43;;;9.07;;
54641;SDS011;40536;53.194;5.728;2023-06-26T08:29:00;11.68;;;8.70;;
54641;SDS011;40536;53.194;5.728;2023-06-26T08:31:32;12.15;;;9.32;;
54641;SDS011;40536;53.194;5.728;2023-06-26T08:34:02;10.10;;;8.70;;
54641;SDS011;40536;53.194;5.728;2023-06-26T08:36:29;11.20;;;9.30;;
54641;SDS011;40536;53.194;5.728;2023-06-26T08:38:55;12.70;;;7.95;;
54641;SDS011;40536;53.194;5.728;2023-06-26T08:41:21;13.15;;;8.00;;
54641;SDS011;40536;53.194;5.728;2023-06-26T08:43:46;9.27;;;8.02;;
54641;SDS011;40536;53.194;5.728;2023-06-26T08:46:13;12.48;;;7.18;;
54641;SDS011;40536;53.194;5.728;2023-06-26T08:48:39;13.18;;;8.10;;
54641;SDS011;40536;53.194;5.728;2023-06-26T08:51:12;10.40;;;7.13;;
54641;SDS011;40536;53.194;5.728;2023-06-26T08:53:52;8.75;;;7.38;;
54641;SDS011;40536;53.194;5.728;2023-06-26T08:56:23;8.70;;;7.60;;
54641;SDS011;40536;53.194;5.728;2023-06-26T08:58:52;10.07;;;7.22;;
54641;SDS011;40536;53.194;5.728;2023-06-26T09:01:19;10.73;;;7.40;;
54641;SDS011;40536;53.194;5.728;2023-06-26T09:03:45;9.07;;;7.55;;
54641;SDS011;40536;53.194;5.728;2023-06-26T09:06:11;11.50;;;8.80;;
54641;SDS011;40536;53.194;5.728;2023-06-26T09:08:37;9.88;;;8.48;;
54641;SDS011;40536;53.194;5.728;2023-06-26T09:11:03;12.18;;;8.30;;
54641;SDS011;40536;53.194;5.728;2023-06-26T09:13:28;9.68;;;8.30;;
54641;SDS011;40536;53.194;5.728;2023-06-26T09:15:55;9.88;;;8.07;;
54641;SDS011;40536;53.194;5.728;2023-06-26T09:18:21;10.40;;;8.23;;
54641;SDS011;40536;53.194;5.728;2023-06-26T09:20:47;9.27;;;8.38;;
54641;SDS011;40536;53.194;5.728;2023-06-26T09:23:16;9.05;;;8.10;;
54641;SDS011;40536;53.194;5.728;2023-06-26T09:25:42;10.63;;;8.25;;
54641;SDS011;40536;53.194;5.728;2023-06-26T09:28:09;9.85;;;8.45;;
54641;SDS011;40536;53.194;5.728;2023-06-26T09:30:35;9.80;;;8.80;;
54641;SDS011;40536;53.194;5.728;2023-06-26T09:33:17;10.93;;;8.00;;
54641;SDS011;40536;53.194;5.728;2023-06-26T09:35:44;9.55;;;8.15;;
54641;SDS011;40536;53.194;5.728;2023-06-26T09:38:12;10.57;;;8.60;;
54641;SDS011;40536;53.194;5.728;2023-06-26T09:40:38;11.27;;;7.63;;
54641;SDS011;40536;53.194;5.728;2023-06-26T09:43:08;9.20;;;7.72;;
54641;SDS011;40536;53.194;5.728;2023-06-26T09:45:39;10.00;;;7.22;;
54641;SDS011;40536;53.194;5.728;2023-06-26T09:48:05;8.52;;;6.93;;
54641;SDS011;40536;53.194;5.728;2023-06-26T09:50:36;11.98;;;6.93;;
54641;SDS011;40536;53.194;5.728;2023-06-26T09:53:12;9.35;;;7.00;;
54641;SDS011;40536;53.194;5.728;2023-06-26T09:55:38;9.95;;;7.20;;
54641;SDS011;40536;53.194;5.728;2023-06-26T09:58:12;12.15;;;6.40;;
54641;SDS011;40536;53.194;5.728;2023-06-26T10:00:40;9.07;;;6.57;;
54641;SDS011;40536;53.194;5.728;2023-06-26T10:03:07;11.13;;;6.70;;
54641;SDS011;40536;53.194;5.728;2023-06-26T10:05:33;9.57;;;6.93;;
54641;SDS011;40536;53.194;5.728;2023-06-26T10:08:00;11.15;;;7.03;;
54641;SDS011;40536;53.194;5.728;2023-06-26T10:10:27;8.93;;;7.15;;
54641;SDS011;40536;53.194;5.728;2023-06-26T10:12:54;8.77;;;6.80;;
54641;SDS011;40536;53.194;5.728;2023-06-26T10:15:29;13.30;;;7.10;;
54641;SDS011;40536;53.194;5.728;2023-06-26T10:17:56;12.60;;;7.03;;
54641;SDS011;40536;53.194;5.728;2023-06-26T10:20:22;11.48;;;7.50;;
54641;SDS011;40536;53.194;5.728;2023-06-26T10:22:50;11.02;;;6.85;;
54641;SDS011;40536;53.194;5.728;2023-06-26T10:25:16;8.82;;;6.85;;
54641;SDS011;40536;53.194;5.728;2023-06-26T10:27:54;9.77;;;5.88;;
54641;SDS011;40536;53.194;5.728;2023-06-26T10:30:24;10.57;;;6.50;;
54641;SDS011;40536;53.194;5.728;2023-06-26T10:32:53;12.32;;;6.50;;
54641;SDS011;40536;53.194;5.728;2023-06-26T10:35:20;9.57;;;6.55;;
54641;SDS011;40536;53.194;5.728;2023-06-26T10:37:47;9.30;;;6.43;;
54641;SDS011;40536;53.194;5.728;2023-06-26T10:40:21;8.63;;;6.05;;
54641;SDS011;40536;53.194;5.728;2023-06-26T10:42:49;13.50;;;6.18;;
54641;SDS011;40536;53.194;5.728;2023-06-26T10:45:16;6.63;;;5.63;;
54641;SDS011;40536;53.194;5.728;2023-06-26T10:47:48;10.60;;;5.90;;
54641;SDS011;40536;53.194;5.728;2023-06-26T10:50:17;14.27;;;6.70;;
54641;SDS011;40536;53.194;5.728;2023-06-26T10:53:07;12.82;;;6.35;;
54641;SDS011;40536;53.194;5.728;2023-06-26T10:55:32;8.75;;;6.40;;
54641;SDS011;40536;53.194;5.728;2023-06-26T10:58:00;10.98;;;6.65;;
54641;SDS011;40536;53.194;5.728;2023-06-26T11:00:27;10.88;;;6.53;;
54641;SDS011;40536;53.194;5.728;2023-06-26T11:02:53;10.85;;;6.75;;
54641;SDS011;40536;53.194;5.728;2023-06-26T11:05:32;9.13;;;7.03;;
54641;SDS011;40536;53.194;5.728;2023-06-26T11:08:08;11.13;;;7.10;;
54641;SDS011;40536;53.194;5.728;2023-06-26T11:10:50;22.25;;;6.50;;
54641;SDS011;40536;53.194;5.728;2023-06-26T11:13:17;12.88;;;6.90;;
54641;SDS011;40536;53.194;5.728;2023-06-26T11:15:44;11.45;;;6.78;;
54641;SDS011;40536;53.194;5.728;2023-06-26T11:18:11;11.15;;;6.40;;
54641;SDS011;40536;53.194;5.728;2023-06-26T11:20:38;13.00;;;6.85;;
54641;SDS011;40536;53.194;5.728;2023-06-26T11:23:04;11.98;;;7.57;;
54641;SDS011;40536;53.194;5.728;2023-06-26T11:25:34;14.50;;;9.13;;
54641;SDS011;40536;53.194;5.728;2023-06-26T11:28:00;12.82;;;7.15;;
54641;SDS011;40536;53.194;5.728;2023-06-26T11:30:26;9.13;;;7.25;;
54641;SDS011;40536;53.194;5.728;2023-06-26T11:32:52;14.50;;;7.40;;
54641;SDS011;40536;53.194;5.728;2023-06-26T11:35:24;15.75;;;8.95;;
54641;SDS011;40536;53.194;5.728;2023-06-26T11:37:59;12.13;;;6.93;;
54641;SDS011;40536;53.194;5.728;2023-06-26T11:40:29;13.25;;;7.63;;
54641;SDS011;40536;53.194;5.728;2023-06-26T11:42:59;11.25;;;6.47;;
54641;SDS011;40536;53.194;5.728;2023-06-26T11:45:32;10.73;;;6.90;;
54641;SDS011;40536;53.194;5.728;2023-06-26T11:47:59;12.82;;;8.40;;
54641;SDS011;40536;53.194;5.728;2023-06-26T11:50:25;11.60;;;8.38;;
54641;SDS011;40536;53.194;5.728;2023-06-26T11:52:56;13.75;;;8.00;;
54641;SDS011;40536;53.194;5.728;2023-06-26T11:55:22;13.40;;;8.05;;
54641;SDS011;40536;53.194;5.728;2023-06-26T11:57:52;14.70;;;8.95;;
54641;SDS011;40536;53.194;5.728;2023-06-26T12:00:19;10.43;;;7.78;;
54641;SDS011;40536;53.194;5.728;2023-06-26T12:02:45;13.15;;;8.02;;
54641;SDS011;40536;53.194;5.728;2023-06-26T12:05:12;9.40;;;7.70;;
54641;SDS011;40536;53.194;5.728;2023-06-26T12:07:42;12.05;;;8.18;;
54641;SDS011;40536;53.194;5.728;2023-06-26T12:10:11;12.30;;;7.93;;
54641;SDS011;40536;53.194;5.728;2023-06-26T12:12:37;9.35;;;7.22;;
54641;SDS011;40536;53.194;5.728;2023-06-26T12:15:03;11.82;;;7.82;;
54641;SDS011;40536;53.194;5.728;2023-06-26T12:17:31;13.45;;;8.10;;
54641;SDS011;40536;53.194;5.728;2023-06-26T12:19:57;10.27;;;7.43;;
54641;SDS011;40536;53.194;5.728;2023-06-26T12:22:23;9.55;;;6.72;;
54641;SDS011;40536;53.194;5.728;2023-06-26T12:24:48;7.63;;;6.82;;
54641;SDS011;40536;53.194;5.728;2023-06-26T12:27:15;9.10;;;7.38;;
54641;SDS011;40536;53.194;5.728;2023-06-26T12:29:47;13.13;;;8.18;;
54641;SDS011;40536;53.194;5.728;2023-06-26T12:32:18;11.75;;;7.88;;
54641;SDS011;40536;53.194;5.728;2023-06-26T12:34:46;11.20;;;7.68;;
54641;SDS011;40536;53.194;5.728;2023-06-26T12:37:13;13.27;;;7.55;;
54641;SDS011;40536;53.194;5.728;2023-06-26T12:42:32;12.10;;;8.20;;
54641;SDS011;40536;53.194;5.728;2023-06-26T12:44:58;14.32;;;8.05;;
54641;SDS011;40536;53.194;5.728;2023-06-26T12:47:28;10.15;;;8.02;;
54641;SDS011;40536;53.194;5.728;2023-06-26T12:49:56;10.02;;;7.75;;
54641;SDS011;40536;53.194;5.728;2023-06-26T12:52:22;12.20;;;8.13;;
54641;SDS011;40536;53.194;5.728;2023-06-26T12:54:52;10.65;;;7.63;;
54641;SDS011;40536;53.194;5.728;2023-06-26T12:57:19;13.65;;;7.82;;
54641;SDS011;40536;53.194;5.728;2023-06-26T12:59:45;10.27;;;7.70;;
54641;SDS011;40536;53.194;5.728;2023-06-26T13:02:11;11.82;;;8.07;;
54641;SDS011;40536;53.194;5.728;2023-06-26T13:04:37;10.45;;;7.20;;
54641;SDS011;40536;53.194;5.728;2023-06-26T13:07:06;11.27;;;7.30;;
54641;SDS011;40536;53.194;5.728;2023-06-26T13:09:33;10.70;;;7.60;;
54641;SDS011;40536;53.194;5.728;2023-06-26T13:11:59;12.90;;;8.20;;
54641;SDS011;40536;53.194;5.728;2023-06-26T13:14:25;14.20;;;7.75;;
54641;SDS011;40536;53.194;5.728;2023-06-26T13:16:51;9.88;;;7.97;;
54641;SDS011;40536;53.194;5.728;2023-06-26T13:19:16;11.48;;;7.65;;
54641;SDS011;40536;53.194;5.728;2023-06-26T13:21:42;10.00;;;7.88;;
54641;SDS011;40536;53.194;5.728;2023-06-26T13:24:08;9.48;;;7.03;;
54641;SDS011;40536;53.194;5.728;2023-06-26T13:26:34;9.27;;;7.70;;
54641;SDS011;40536;53.194;5.728;2023-06-26T13:29:00;11.38;;;7.55;;
54641;SDS011;40536;53.194;5.728;2023-06-26T13:31:26;11.90;;;8.02;;
54641;SDS011;40536;53.194;5.728;2023-06-26T13:33:51;10.27;;;7.20;;
54641;SDS011;40536;53.194;5.728;2023-06-26T13:36:17;13.25;;;8.00;;
54641;SDS011;40536;53.194;5.728;2023-06-26T13:38:43;14.75;;;7.80;;
54641;SDS011;40536;53.194;5.728;2023-06-26T13:41:09;11.20;;;6.75;;
54641;SDS011;40536;53.194;5.728;2023-06-26T13:43:35;11.02;;;7.28;;
54641;SDS011;40536;53.194;5.728;2023-06-26T13:46:01;10.90;;;7.63;;
54641;SDS011;40536;53.194;5.728;2023-06-26T13:48:28;9.85;;;7.15;;
54641;SDS011;40536;53.194;5.728;2023-06-26T13:50:54;10.02;;;7.55;;
54641;SDS011;40536;53.194;5.728;2023-06-26T13:53:21;14.70;;;7.85;;
54641;SDS011;40536;53.194;5.728;2023-06-26T13:55:47;8.45;;;6.95;;
54641;SDS011;40536;53.194;5.728;2023-06-26T13:58:13;7.97;;;7.15;;
54641;SDS011;40536;53.194;5.728;2023-06-26T14:00:39;9.20;;;7.40;;
54641;SDS011;40536;53.194;5.728;2023-06-26T14:03:06;10.40;;;7.00;;
54641;SDS011;40536;53.194;5.728;2023-06-26T14:05:33;12.38;;;7.13;;
54641;SDS011;40536;53.194;5.728;2023-06-26T14:07:59;10.88;;;6.90;;
54641;SDS011;40536;53.194;5.728;2023-06-26T14:10:27;9.35;;;7.20;;
54641;SDS011;40536;53.194;5.728;2023-06-26T14:12:53;11.02;;;7.53;;
54641;SDS011;40536;53.194;5.728;2023-06-26T14:15:18;11.65;;;7.20;;
54641;SDS011;40536;53.194;5.728;2023-06-26T14:17:44;12.55;;;9.02;;
54641;SDS011;40536;53.194;5.728;2023-06-26T14:20:10;12.50;;;7.03;;
54641;SDS011;40536;53.194;5.728;2023-06-26T14:22:39;8.43;;;7.03;;
54641;SDS011;40536;53.194;5.728;2023-06-26T14:25:06;10.63;;;7.22;;
54641;SDS011;40536;53.194;5.728;2023-06-26T14:27:32;8.90;;;7.25;;
54641;SDS011;40536;53.194;5.728;2023-06-26T14:29:58;11.07;;;7.43;;
54641;SDS011;40536;53.194;5.728;2023-06-26T14:32:23;14.10;;;7.82;;
54641;SDS011;40536;53.194;5.728;2023-06-26T14:34:49;10.82;;;7.30;;
54641;SDS011;40536;53.194;5.728;2023-06-26T14:37:15;7.82;;;6.85;;
54641;SDS011;40536;53.194;5.728;2023-06-26T14:39:41;14.45;;;7.20;;